Time;durP1;ratioP1;P1;durP2;ratioP2;P2;SDS_P1;SDS_P2;PMS_P1;PMS_P2;Temp;Humidity;BMP_temperature;BMP_pressure;BME280_temperature;BME280_humidity;BME280_pressure;Samples;Min_cycle;Max_cycle;Signal;HPM_P1;HPM_P2
2021/01/25 00:00:19;;;;;;;42.80;16.75;;;;;;;0.61;85.17;98683.41;5062622;28;20013;-62
2021/01/25 00:02:45;;;;;;;57.95;17.95;;;;;;;0.63;85.09;98674.06;5044634;28;20024;-63
2021/01/25 00:05:11;;;;;;;45.80;17.08;;;;;;;0.65;85.09;98679.19;5062845;28;20025;-62
2021/01/25 00:07:37;;;;;;;48.08;16.50;;;;;;;0.66;85.23;98676.63;5062949;28;20083;-62
2021/01/25 00:10:05;;;;;;;50.53;19.10;;;;;;;0.69;85.15;98675.78;5063005;28;20028;-62
2021/01/25 00:12:30;;;;;;;56.33;19.08;;;;;;;0.72;85.10;98676.66;5062823;28;20029;-62
2021/01/25 00:14:56;;;;;;;53.45;20.02;;;;;;;0.71;85.05;98674.09;5062574;28;20033;-63
2021/01/25 00:17:21;;;;;;;50.90;19.52;;;;;;;0.73;85.12;98674.97;5044536;28;20021;-62
2021/01/25 00:19:47;;;;;;;52.78;19.55;;;;;;;0.77;85.20;98674.13;5062326;28;20076;-61
2021/01/25 00:22:12;;;;;;;48.80;18.67;;;;;;;0.81;85.14;98669.88;5062614;28;20021;-61
2021/01/25 00:24:38;;;;;;;61.33;20.00;;;;;;;0.80;85.19;98679.22;5062398;28;20020;-61
2021/01/25 00:27:04;;;;;;;51.92;19.77;;;;;;;0.85;84.89;98675.00;5062548;28;20025;-61
2021/01/25 00:29:29;;;;;;;57.45;20.52;;;;;;;0.81;84.91;98670.75;5044612;28;20025;-63
2021/01/25 00:31:55;;;;;;;50.88;19.73;;;;;;;0.87;84.86;98669.88;5062172;28;20021;-63
2021/01/25 00:34:21;;;;;;;50.97;19.40;;;;;;;0.86;84.87;98678.41;5062370;28;20112;-63
2021/01/25 00:36:47;;;;;;;47.85;18.30;;;;;;;0.88;84.90;98680.97;5062066;28;20045;-62
2021/01/25 00:39:12;;;;;;;49.65;18.50;;;;;;;0.84;84.86;98675.00;5062408;28;20067;-63
2021/01/25 00:41:37;;;;;;;45.72;16.40;;;;;;;0.83;84.87;98676.69;5044414;28;20063;-64
2021/01/25 00:44:03;;;;;;;55.00;20.88;;;;;;;0.84;84.84;98677.56;5062421;28;20464;-64
2021/01/25 00:46:29;;;;;;;59.80;19.65;;;;;;;0.80;84.92;98674.13;5062354;28;20106;-63
2021/01/25 00:48:54;;;;;;;52.60;19.75;;;;;;;0.83;84.97;98676.69;5062885;28;20017;-63
2021/01/25 00:51:19;;;;;;;44.17;16.52;;;;;;;0.84;84.98;98680.09;5065893;28;20505;-63
2021/01/25 00:53:45;;;;;;;50.13;19.58;;;;;;;0.82;84.93;98677.53;5065996;28;20075;-62
2021/01/25 00:56:11;;;;;;;49.22;18.35;;;;;;;0.80;84.94;98683.50;5065920;28;20416;-63
2021/01/25 00:58:37;;;;;;;53.63;18.17;;;;;;;0.77;84.98;98675.84;5065790;28;20025;-61
2021/01/25 01:01:02;;;;;;;59.08;18.65;;;;;;;0.73;85.10;98678.38;5066195;28;20025;-61
2021/01/25 01:03:28;;;;;;;49.13;19.25;;;;;;;0.72;85.11;98676.66;5048085;28;20031;-60
2021/01/25 01:05:53;;;;;;;42.20;16.25;;;;;;;0.71;85.15;98682.63;5065892;28;20036;-60
2021/01/25 01:08:18;;;;;;;55.65;19.00;;;;;;;0.70;85.07;98683.44;5048002;28;20017;-61
2021/01/25 01:10:45;;;;;;;55.65;20.15;;;;;;;0.66;85.11;98674.06;5065910;28;20331;-61
2021/01/25 01:13:11;;;;;;;49.55;17.52;;;;;;;0.68;85.10;98677.50;5065829;28;20060;-61
2021/01/25 01:15:36;;;;;;;52.13;20.30;;;;;;;0.66;85.11;98681.75;5066198;28;20017;-61
2021/01/25 01:18:02;;;;;;;51.80;18.17;;;;;;;0.61;85.15;98679.16;5065580;28;20032;-61
2021/01/25 01:20:27;;;;;;;44.25;17.58;;;;;;;0.64;85.21;98680.88;5065518;28;20017;-62
2021/01/25 01:22:52;;;;;;;44.05;16.33;;;;;;;0.57;85.17;98668.94;5065734;28;20740;-61
2021/01/25 01:25:18;;;;;;;42.85;16.67;;;;;;;0.60;85.43;98674.06;5065470;28;20021;-63
2021/01/25 01:27:43;;;;;;;49.42;17.98;;;;;;;0.60;85.22;98680.03;5065695;28;20025;-62
2021/01/25 01:30:09;;;;;;;57.25;19.20;;;;;;;0.59;85.26;98680.84;5047903;28;20088;-62
2021/01/25 01:32:34;;;;;;;47.35;18.17;;;;;;;0.59;85.40;98682.56;5065551;28;20500;-64
2021/01/25 01:35:00;;;;;;;54.08;18.48;;;;;;;0.52;85.42;98674.03;5047128;28;20021;-63
2021/01/25 01:37:25;;;;;;;64.80;21.98;;;;;;;0.52;85.34;98673.16;5065418;28;20040;-63
2021/01/25 01:39:51;;;;;;;64.25;20.08;;;;;;;0.53;85.24;98682.56;5064881;28;20052;-64
2021/01/25 01:42:17;;;;;;;70.78;21.58;;;;;;;0.51;85.28;98686.78;5046674;28;20477;-64
2021/01/25 01:44:43;;;;;;;65.20;20.80;;;;;;;0.44;85.48;98679.09;5065639;28;20029;-64
2021/01/25 01:47:13;;;;;;;64.28;21.27;;;;;;;0.48;85.42;98688.47;5065602;28;20060;-66
2021/01/25 01:49:39;;;;;;;76.03;21.92;;;;;;;0.48;85.46;98674.84;5065237;28;20025;-65
2021/01/25 01:52:05;;;;;;;56.63;19.25;;;;;;;0.45;85.41;98669.72;5047322;28;20050;-67
2021/01/25 01:54:32;;;;;;;66.75;20.95;;;;;;;0.54;85.33;98679.13;5065320;28;20041;-66
2021/01/25 01:56:57;;;;;;;65.80;21.95;;;;;;;0.51;85.51;98674.03;5065315;28;20080;-65
2021/01/25 01:59:22;;;;;;;55.65;18.85;;;;;;;0.54;85.43;98681.69;5047006;28;20059;-64
2021/01/25 02:01:48;;;;;;;61.70;20.77;;;;;;;0.52;85.54;98675.72;5064459;28;20029;-64
2021/01/25 02:04:14;;;;;;;57.63;19.90;;;;;;;0.52;85.43;98679.13;5065024;28;20017;-64
2021/01/25 02:06:40;;;;;;;72.20;21.52;;;;;;;0.52;85.54;98678.28;5064892;28;20048;-65
2021/01/25 02:09:06;;;;;;;63.45;20.98;;;;;;;0.52;85.44;98674.03;5064944;28;20024;-63
2021/01/25 02:11:33;;;;;;;74.18;21.70;;;;;;;0.51;85.74;98676.56;5047157;28;20025;-64
2021/01/25 02:14:01;;;;;;;57.38;20.67;;;;;;;0.51;85.96;98680.00;5064758;28;20086;-65
2021/01/25 02:16:26;;;;;;;59.60;20.00;;;;;;;0.49;85.92;98672.31;5047094;28;20060;-65
2021/01/25 02:18:52;;;;;;;56.75;18.08;;;;;;;0.46;86.07;98682.50;5064329;28;20028;-65
2021/01/25 02:21:19;;;;;;;53.35;19.50;;;;;;;0.44;85.97;98675.69;5046575;28;20055;-65
2021/01/25 02:24:19;;;;;;;60.05;19.67;;;;;;;0.43;86.19;98689.31;5064917;28;20059;-64
2021/01/25 02:27:26;;;;;;;63.47;20.52;;;;;;;0.40;86.29;98679.91;5064846;28;20465;-64
2021/01/25 02:29:52;;;;;;;65.60;21.52;;;;;;;0.41;86.34;98675.66;4986198;28;20068;-63
2021/01/25 02:32:17;;;;;;;74.05;21.10;;;;;;;0.38;86.58;98675.66;5002731;28;20118;-64
2021/01/25 02:34:43;;;;;;;65.15;21.42;;;;;;;0.34;86.49;98672.22;4986170;28;20166;-64
2021/01/25 02:37:10;;;;;;;80.75;22.50;;;;;;;0.39;86.61;98682.47;5002094;28;20568;-63
2021/01/25 02:39:36;;;;;;;66.25;22.00;;;;;;;0.40;86.66;98676.53;4985887;28;20034;-63
2021/01/25 02:42:02;;;;;;;61.55;20.45;;;;;;;0.42;86.74;98677.38;5002402;28;20170;-63
2021/01/25 02:44:29;;;;;;;52.67;19.58;;;;;;;0.43;86.75;98679.09;5002432;28;20034;-63
2021/01/25 02:46:57;;;;;;;53.63;18.05;;;;;;;0.42;86.83;98664.59;4986208;28;20038;-61
2021/01/25 02:49:22;;;;;;;57.90;20.25;;;;;;;0.45;86.73;98673.13;5002019;28;20034;-62
2021/01/25 02:51:47;;;;;;;60.17;21.23;;;;;;;0.48;86.75;98673.16;5002019;28;20034;-63
2021/01/25 02:54:13;;;;;;;52.65;19.85;;;;;;;0.51;86.76;98671.47;4986053;28;20030;-63
2021/01/25 02:56:38;;;;;;;48.13;19.65;;;;;;;0.53;86.84;98674.88;5002152;28;20306;-64
2021/01/25 02:59:04;;;;;;;57.55;21.27;;;;;;;0.55;86.77;98674.03;4985499;28;20069;-65
2021/01/25 03:01:29;;;;;;;50.53;19.52;;;;;;;0.56;86.77;98670.63;5002148;28;20026;-64
2021/01/25 03:03:55;;;;;;;51.83;18.23;;;;;;;0.53;86.71;98674.88;5001991;28;20022;-65
2021/01/25 03:06:21;;;;;;;59.55;20.48;;;;;;;0.55;86.87;98679.16;5041773;28;20041;-65
2021/01/25 03:08:46;;;;;;;73.22;20.83;;;;;;;0.52;86.85;98670.59;5063936;28;20057;-65
2021/01/25 03:11:12;;;;;;;53.10;17.55;;;;;;;0.53;86.90;98674.88;5064187;28;20029;-65
2021/01/25 03:13:37;;;;;;;49.40;17.40;;;;;;;0.54;86.82;98680.00;5045849;28;20135;-64
2021/01/25 03:16:03;;;;;;;55.40;18.13;;;;;;;0.51;87.02;98681.69;5063755;28;20032;-65
2021/01/25 03:18:28;;;;;;;43.88;16.63;;;;;;;0.49;86.84;98677.44;5045624;28;20017;-65
2021/01/25 03:20:55;;;;;;;54.53;18.85;;;;;;;0.47;86.96;98675.69;5063636;28;20033;-64
2021/01/25 03:23:20;;;;;;;51.65;17.58;;;;;;;0.46;86.82;98674.84;5063803;28;20025;-66
2021/01/25 03:25:46;;;;;;;55.15;20.17;;;;;;;0.49;86.95;98685.09;5063670;28;20024;-64
2021/01/25 03:28:11;;;;;;;53.58;19.13;;;;;;;0.48;86.93;98691.03;5063801;28;20028;-64
2021/01/25 03:30:37;;;;;;;41.65;17.40;;;;;;;0.46;86.87;98679.94;5063647;28;20029;-64
2021/01/25 03:33:04;;;;;;;49.78;18.15;;;;;;;0.45;86.93;98679.94;5063566;28;20380;-63
2021/01/25 03:35:29;;;;;;;55.55;16.15;;;;;;;0.44;87.05;98683.34;5063341;28;20041;-65
2021/01/25 03:37:55;;;;;;;47.35;16.98;;;;;;;0.43;87.12;98684.19;5063555;28;20029;-64
2021/01/25 03:40:20;;;;;;;56.63;16.73;;;;;;;0.42;87.30;98685.03;5063496;28;20017;-63
2021/01/25 03:42:45;;;;;;;57.72;15.02;;;;;;;0.42;87.20;98692.69;5045593;28;20025;-64
2021/01/25 03:45:12;;;;;;;46.78;16.83;;;;;;;0.41;87.11;98689.31;5063499;28;20025;-65
2021/01/25 03:47:38;;;;;;;54.35;19.92;;;;;;;0.37;87.26;98685.00;5063476;28;20035;-65
2021/01/25 03:50:04;;;;;;;54.55;17.20;;;;;;;0.39;87.25;98688.44;5063336;28;20021;-64
2021/01/25 03:52:29;;;;;;;57.63;19.58;;;;;;;0.35;87.31;98682.44;5045434;28;20377;-64
2021/01/25 03:54:55;;;;;;;46.47;17.55;;;;;;;0.37;87.29;98690.13;5045225;28;20029;-64
2021/01/25 03:57:20;;;;;;;52.03;17.73;;;;;;;0.35;87.25;98686.72;5063415;28;20021;-64
2021/01/25 03:59:46;;;;;;;56.85;18.50;;;;;;;0.38;87.31;98691.84;5063105;28;20025;-66
2021/01/25 04:02:13;;;;;;;52.95;17.40;;;;;;;0.35;87.51;98695.22;5063493;28;20025;-65
2021/01/25 04:04:40;;;;;;;44.65;12.98;;;;;;;0.35;87.61;98682.44;5063169;28;20032;-65
2021/01/25 04:07:05;;;;;;;52.53;17.92;;;;;;;0.34;87.47;98688.41;5045140;28;20041;-64
2021/01/25 04:09:31;;;;;;;56.97;17.98;;;;;;;0.38;87.57;98689.28;5045277;28;20017;-67
2021/01/25 04:11:56;;;;;;;49.30;16.80;;;;;;;0.35;87.59;98692.66;5063152;28;20029;-65
2021/01/25 04:14:21;;;;;;;60.63;19.42;;;;;;;0.34;87.68;98690.09;5062991;28;20290;-65
2021/01/25 04:16:47;;;;;;;65.00;20.35;;;;;;;0.39;87.63;98698.66;5045241;28;20035;-64
2021/01/25 04:19:12;;;;;;;60.38;19.80;;;;;;;0.40;87.59;98694.41;5063239;28;20075;-65
2021/01/25 04:21:39;;;;;;;57.72;18.08;;;;;;;0.37;87.64;98692.66;5062918;28;20021;-66
2021/01/25 04:24:05;;;;;;;71.82;21.33;;;;;;;0.35;87.79;98689.28;5064050;28;20079;-66
2021/01/25 04:26:30;;;;;;;59.35;20.70;;;;;;;0.39;87.76;98695.22;5066910;28;20021;-65
2021/01/25 04:28:55;;;;;;;51.30;19.40;;;;;;;0.38;87.80;98689.28;5066833;28;20044;-66
2021/01/25 04:31:21;;;;;;;58.47;19.10;;;;;;;0.39;87.82;98696.09;5049085;28;20112;-66
2021/01/25 04:33:46;;;;;;;48.72;17.13;;;;;;;0.40;87.76;98700.34;5066911;28;20024;-65
2021/01/25 04:36:12;;;;;;;54.60;19.05;;;;;;;0.40;87.88;98702.91;5066568;28;20594;-66
2021/01/25 04:38:37;;;;;;;56.03;19.00;;;;;;;0.39;87.96;98690.97;5066751;28;20021;-67
2021/01/25 04:41:03;;;;;;;61.58;19.27;;;;;;;0.40;87.86;98702.91;5066857;28;20021;-65
2021/01/25 04:43:29;;;;;;;54.30;17.55;;;;;;;0.40;87.73;98700.34;5066637;28;20101;-66
2021/01/25 04:45:54;;;;;;;63.83;20.25;;;;;;;0.38;87.84;98696.94;5066739;28;20055;-65
2021/01/25 04:48:24;;;;;;;59.60;18.75;;;;;;;0.36;87.97;98696.94;5066712;28;20033;-65
2021/01/25 04:50:51;;;;;;;52.90;18.33;;;;;;;0.39;87.92;98695.22;5066560;28;20029;-64
2021/01/25 04:53:17;;;;;;;51.22;17.90;;;;;;;0.38;88.07;98690.97;5066691;28;20469;-65
2021/01/25 04:55:43;;;;;;;63.47;21.30;;;;;;;0.40;88.04;98697.78;5066246;28;20112;-66
2021/01/25 04:58:09;;;;;;;53.95;19.40;;;;;;;0.40;87.91;98700.34;5048236;28;20032;-65
2021/01/25 05:00:34;;;;;;;51.65;16.65;;;;;;;0.39;87.95;98701.19;5066539;28;20384;-65
2021/01/25 05:02:59;;;;;;;58.45;18.90;;;;;;;0.39;87.92;98700.34;5066283;28;20017;-65
2021/01/25 05:05:25;;;;;;;66.60;20.30;;;;;;;0.40;88.03;98699.50;5048282;28;20059;-65
2021/01/25 05:07:50;;;;;;;59.30;19.58;;;;;;;0.35;88.02;98702.03;5048354;28;20025;-66
2021/01/25 05:10:16;;;;;;;53.78;18.75;;;;;;;0.38;87.98;98706.28;5066286;28;20020;-65
2021/01/25 05:12:42;;;;;;;63.60;20.00;;;;;;;0.35;88.21;98700.31;5066186;28;20570;-65
2021/01/25 05:15:09;;;;;;;47.60;19.38;;;;;;;0.36;88.15;98706.28;5066309;28;20570;-65
2021/01/25 05:17:36;;;;;;;51.30;18.80;;;;;;;0.39;88.08;98703.75;5048128;28;20342;-65
2021/01/25 05:20:06;;;;;;;45.55;17.10;;;;;;;0.35;88.00;98714.81;5066034;28;20021;-66
2021/01/25 05:22:35;;;;;;;44.08;15.55;;;;;;;0.33;88.15;98709.69;5066188;28;20017;-65
2021/01/25 05:25:01;;;;;;;38.35;16.08;;;;;;;0.34;88.15;98707.97;5047711;28;20017;-66
2021/01/25 05:27:30;;;;;;;37.00;16.08;;;;;;;0.32;88.04;98707.97;5048179;28;20031;-65
2021/01/25 05:30:08;;;;;;;40.58;13.68;;;;;;;0.30;88.00;98708.81;5047868;28;20088;-64
2021/01/25 05:32:55;;;;;;;49.85;17.13;;;;;;;0.28;88.20;98707.94;5048053;28;20021;-64
2021/01/25 05:35:29;;;;;;;30.20;11.20;;;;;;;0.24;88.14;98705.38;5046310;28;20144;-64
2021/01/25 05:37:57;;;;;;;35.97;14.43;;;;;;;0.24;87.93;98715.56;5065248;28;20396;-64
2021/01/25 05:40:24;;;;;;;30.65;12.82;;;;;;;0.22;87.97;98718.97;5046804;28;20029;-65
2021/01/25 05:42:50;;;;;;;24.70;9.50;;;;;;;0.17;87.96;98713.84;5046789;28;20082;-65
2021/01/25 05:45:16;;;;;;;36.85;14.45;;;;;;;0.11;87.90;98706.16;5065085;28;20028;-66
2021/01/25 05:47:49;;;;;;;39.28;15.45;;;;;;;0.13;87.84;98714.66;5065391;28;20020;-65
2021/01/25 05:50:35;;;;;;;18.85;8.73;;;;;;;0.14;87.93;98718.06;5065043;28;20025;-66
2021/01/25 05:53:07;;;;;;;36.88;13.80;;;;;;;0.11;87.85;98712.09;5065483;28;20017;-65
2021/01/25 05:55:33;;;;;;;37.08;14.65;;;;;;;0.13;88.12;98711.25;5065155;28;20050;-66
2021/01/25 05:58:00;;;;;;;35.47;15.38;;;;;;;0.15;88.15;98712.09;5065208;28;20048;-64
2021/01/25 06:00:26;;;;;;;34.65;14.95;;;;;;;0.17;88.18;98718.09;5065282;28;20025;-66
2021/01/25 06:02:53;;;;;;;36.25;14.43;;;;;;;0.19;87.97;98731.72;5065323;28;20035;-65
2021/01/25 06:05:30;;;;;;;38.17;13.73;;;;;;;0.16;88.11;98731.69;5065013;28;20025;-65
2021/01/25 06:08:19;;;;;;;35.88;14.18;;;;;;;0.13;88.10;98727.41;5065376;28;20025;-63
2021/01/25 06:10:53;;;;;;;32.45;13.82;;;;;;;0.14;88.01;98733.38;5065431;28;20025;-65
2021/01/25 06:13:25;;;;;;;38.15;14.50;;;;;;;0.06;87.71;98725.66;5065201;28;20057;-65
2021/01/25 06:15:52;;;;;;;25.60;10.07;;;;;;;0.04;87.91;98735.00;5065392;28;20025;-66
2021/01/25 06:18:19;;;;;;;29.35;12.85;;;;;;;0.04;88.04;98728.22;5047142;28;20028;-64
2021/01/25 06:20:47;;;;;;;34.35;15.00;;;;;;;0.03;88.05;98739.28;5064920;28;20086;-63
2021/01/25 06:23:13;;;;;;;35.50;14.55;;;;;;;0.09;88.20;98753.75;5064922;28;20080;-64
2021/01/25 06:25:39;;;;;;;28.55;13.48;;;;;;;0.10;88.21;98743.56;5046882;28;20488;-64
2021/01/25 06:28:05;;;;;;;38.97;15.15;;;;;;;0.12;88.20;98751.22;5064869;28;20124;-64
2021/01/25 06:30:30;;;;;;;28.23;11.25;;;;;;;0.13;87.85;98752.94;5064819;28;20029;-64
2021/01/25 06:32:57;;;;;;;33.67;13.90;;;;;;;0.12;88.05;98756.34;5064590;28;20029;-65
2021/01/25 06:35:28;;;;;;;24.17;9.90;;;;;;;0.09;88.05;98758.88;5046254;28;20057;-64
2021/01/25 06:37:55;;;;;;;35.65;14.98;;;;;;;0.09;88.14;98753.75;5064686;28;20056;-64
2021/01/25 06:40:28;;;;;;;34.78;14.15;;;;;;;-0.02;87.97;98744.31;5046220;28;20017;-64
2021/01/25 06:42:54;;;;;;;31.02;12.38;;;;;;;0.06;88.15;98757.16;5064580;28;20025;-64
2021/01/25 06:45:23;;;;;;;25.40;10.85;;;;;;;0.09;88.31;98766.53;5064515;28;20088;-64
2021/01/25 06:47:49;;;;;;;34.35;14.18;;;;;;;0.11;88.16;98768.22;5046189;28;20029;-64
2021/01/25 06:50:15;;;;;;;34.75;16.08;;;;;;;0.10;88.29;98765.66;5064073;28;20025;-64
2021/01/25 06:52:41;;;;;;;33.35;13.23;;;;;;;0.10;88.50;98763.13;5064434;28;20050;-64
2021/01/25 06:55:08;;;;;;;35.80;16.65;;;;;;;0.14;88.34;98775.06;5064332;28;20096;-64
2021/01/25 06:57:36;;;;;;;34.67;14.07;;;;;;;0.15;88.39;98775.91;5064360;28;20102;-64
2021/01/25 07:00:08;;;;;;;34.30;13.63;;;;;;;0.14;88.25;98779.31;5046185;28;20103;-64
2021/01/25 07:02:33;;;;;;;31.80;11.85;;;;;;;0.13;88.30;98775.91;5064432;28;20024;-65
2021/01/25 07:04:59;;;;;;;34.20;14.88;;;;;;;0.09;88.38;98774.19;5064083;28;20112;-64
2021/01/25 07:07:27;;;;;;;35.60;13.63;;;;;;;0.08;88.47;98775.03;5045961;28;20021;-65
2021/01/25 07:09:54;;;;;;;34.17;14.45;;;;;;;0.11;88.61;98775.06;5064020;28;20430;-64
2021/01/25 07:12:22;;;;;;;32.10;12.68;;;;;;;0.13;88.45;98788.66;5063912;28;20028;-63
2021/01/25 07:14:48;;;;;;;23.67;12.05;;;;;;;0.10;88.37;98784.41;5063835;28;20033;-62
2021/01/25 07:17:14;;;;;;;24.75;11.88;;;;;;;0.09;88.53;98781.84;5063964;28;20411;-63
2021/01/25 07:19:39;;;;;;;26.60;12.65;;;;;;;0.07;88.45;98775.84;5063878;28;20027;-62
2021/01/25 07:22:07;;;;;;;12.27;6.70;;;;;;;0.13;88.51;98787.81;5045700;28;20032;-63
2021/01/25 07:24:35;;;;;;;26.75;11.77;;;;;;;0.13;88.05;98788.66;5063408;28;20051;-64
2021/01/25 07:27:01;;;;;;;25.40;12.23;;;;;;;0.09;88.19;98792.91;5062656;28;20055;-63
2021/01/25 07:29:27;;;;;;;29.60;10.82;;;;;;;0.08;88.38;98800.53;5063042;28;20009;-63
2021/01/25 07:31:54;;;;;;;32.65;12.85;;;;;;;0.08;88.01;98800.53;5063408;28;20546;-63
2021/01/25 07:34:19;;;;;;;24.98;11.75;;;;;;;0.05;88.08;98805.63;5044874;28;20096;-62
2021/01/25 07:36:45;;;;;;;24.58;10.73;;;;;;;0.03;88.33;98799.66;5062971;28;20041;-63
2021/01/25 07:39:13;;;;;;;24.52;11.18;;;;;;;-0.01;88.18;98797.06;5063542;28;20017;-63
2021/01/25 07:41:40;;;;;;;19.75;10.15;;;;;;;0.06;88.01;98804.78;5063542;28;20017;-62
2021/01/25 07:44:06;;;;;;;28.30;12.15;;;;;;;0.05;88.19;98805.63;5063311;28;20025;-63
2021/01/25 07:46:33;;;;;;;24.70;10.38;;;;;;;0.06;87.84;98800.53;5045523;28;20024;-63
2021/01/25 07:48:58;;;;;;;19.60;10.48;;;;;;;-0.06;87.78;98787.66;5063236;28;20020;-63
2021/01/25 07:51:25;;;;;;;24.55;10.48;;;;;;;-0.02;88.03;98805.53;5063273;28;20511;-62
2021/01/25 07:53:52;;;;;;;24.75;10.85;;;;;;;-0.02;88.02;98815.75;5063352;28;20032;-64
2021/01/25 07:56:19;;;;;;;24.23;10.52;;;;;;;-0.06;88.16;98803.81;5062666;28;20017;-64
2021/01/25 07:58:45;;;;;;;18.17;8.68;;;;;;;-0.02;88.22;98812.38;5061589;28;20251;-64
2021/01/25 08:01:15;;;;;;;22.88;10.30;;;;;;;-0.01;87.76;98821.72;5044489;28;20033;-64
2021/01/25 08:03:42;;;;;;;21.38;10.00;;;;;;;-0.05;87.84;98820.81;5063127;28;20029;-64
2021/01/25 08:06:10;;;;;;;21.00;10.77;;;;;;;-0.04;87.97;98826.78;5062918;28;20248;-64
2021/01/25 08:08:36;;;;;;;22.02;9.98;;;;;;;-0.06;87.88;98829.34;5063269;28;20043;-64
2021/01/25 08:11:06;;;;;;;20.60;9.60;;;;;;;-0.06;87.87;98825.91;5063375;28;20056;-64
2021/01/25 08:13:38;;;;;;;23.42;10.77;;;;;;;-0.11;87.99;98825.03;5062662;28;20024;-64
2021/01/25 08:16:16;;;;;;;20.70;10.65;;;;;;;-0.08;87.63;98832.72;5062278;28;20051;-63
2021/01/25 08:18:55;;;;;;;19.60;9.40;;;;;;;-0.10;87.87;98832.72;5062194;28;20063;-63
2021/01/25 08:21:25;;;;;;;20.55;10.88;;;;;;;-0.15;87.91;98824.16;5062164;28;20059;-62
2021/01/25 08:23:53;;;;;;;27.98;10.27;;;;;;;-0.12;87.97;98834.38;5063110;28;20025;-62
2021/01/25 08:26:24;;;;;;;13.80;6.97;;;;;;;-0.07;87.82;98836.97;5063148;28;20025;-62
2021/01/25 08:28:58;;;;;;;15.18;7.38;;;;;;;-0.13;87.48;98835.22;5045121;28;20024;-62
2021/01/25 08:31:36;;;;;;;16.58;8.68;;;;;;;-0.13;87.50;98843.72;5062958;28;20244;-62
2021/01/25 08:34:25;;;;;;;20.92;9.55;;;;;;;-0.14;87.53;98841.16;5063103;28;20032;-63
2021/01/25 08:37:07;;;;;;;14.65;8.48;;;;;;;-0.18;87.73;98839.44;5062663;28;20116;-63
2021/01/25 08:39:44;;;;;;;17.38;8.75;;;;;;;-0.14;87.82;98841.16;5062154;28;20051;-63
2021/01/25 08:42:12;;;;;;;17.67;7.22;;;;;;;-0.09;87.68;98839.50;5062064;28;20021;-62
2021/01/25 08:44:43;;;;;;;17.20;8.82;;;;;;;-0.14;87.62;98841.16;5062295;28;20021;-62
2021/01/25 08:47:09;;;;;;;18.30;9.23;;;;;;;-0.17;87.65;98830.91;5062900;28;20032;-64
2021/01/25 08:49:41;;;;;;;11.98;7.07;;;;;;;-0.14;87.62;98834.38;5062478;28;20029;-63
2021/01/25 08:52:29;;;;;;;14.98;7.13;;;;;;;-0.07;87.50;98839.53;5043436;28;20029;-64
2021/01/25 08:55:05;;;;;;;15.50;7.15;;;;;;;-0.10;87.46;98842.03;5049517;28;20032;-63
2021/01/25 08:57:36;;;;;;;18.13;8.55;;;;;;;-0.13;87.49;98842.88;5062758;28;20033;-63
2021/01/25 09:00:18;;;;;;;18.15;7.93;;;;;;;-0.06;87.68;98849.75;5044613;28;20055;-63
2021/01/25 09:02:45;;;;;;;14.32;8.73;;;;;;;-0.03;87.75;98851.47;5062681;28;20060;-63
2021/01/25 09:05:13;;;;;;;16.67;8.25;;;;;;;0.05;87.72;98854.09;5044625;28;20025;-63
2021/01/25 09:07:38;;;;;;;20.88;7.13;;;;;;;0.12;87.71;98855.88;5044958;28;20025;-64
2021/01/25 09:10:06;;;;;;;15.20;8.85;;;;;;;0.12;87.54;98853.31;5045574;28;20024;-64
2021/01/25 09:12:31;;;;;;;10.00;5.78;;;;;;;0.16;87.39;98859.31;5066223;28;20064;-63
2021/01/25 09:14:57;;;;;;;11.52;6.20;;;;;;;0.17;87.37;98861.88;5066245;28;20029;-62
2021/01/25 09:17:24;;;;;;;13.82;6.47;;;;;;;0.18;87.41;98863.56;5066266;28;20109;-61
2021/01/25 09:19:50;;;;;;;13.13;7.30;;;;;;;0.19;87.22;98870.38;5047859;28;20110;-63
2021/01/25 09:22:15;;;;;;;13.45;7.90;;;;;;;0.19;86.91;98865.28;5065953;28;20029;-64
2021/01/25 09:24:41;;;;;;;11.60;6.28;;;;;;;0.29;87.21;98873.03;5048073;28;20028;-63
2021/01/25 09:27:08;;;;;;;12.00;6.80;;;;;;;0.33;87.08;98878.19;5065823;28;20090;-63
2021/01/25 09:29:33;;;;;;;12.95;7.22;;;;;;;0.41;86.86;98878.25;5065893;28;20104;-63
2021/01/25 09:31:58;;;;;;;14.13;6.60;;;;;;;0.50;86.96;98882.56;5066026;28;20025;-63
2021/01/25 09:34:24;;;;;;;11.30;5.60;;;;;;;0.56;86.70;98881.75;5047926;28;20457;-62
2021/01/25 09:36:50;;;;;;;11.13;5.75;;;;;;;0.58;86.33;98873.25;5065448;28;20048;-62
2021/01/25 09:39:16;;;;;;;7.57;4.65;;;;;;;0.59;86.17;98874.13;5047401;28;20028;-63
2021/01/25 09:41:44;;;;;;;12.68;6.10;;;;;;;0.63;85.99;98880.94;5065042;28;20039;-63
2021/01/25 09:44:10;;;;;;;11.13;4.95;;;;;;;0.66;86.26;98878.41;5065576;28;20096;-63
2021/01/25 09:46:35;;;;;;;13.07;5.53;;;;;;;0.80;85.67;98877.69;5047700;28;20021;-63
2021/01/25 09:49:00;;;;;;;7.10;3.22;;;;;;;0.88;85.50;98898.16;5065183;28;20025;-63
2021/01/25 09:51:26;;;;;;;9.02;4.25;;;;;;;0.91;85.32;98886.25;5047186;28;20036;-63
2021/01/25 09:53:51;;;;;;;8.63;4.03;;;;;;;0.92;84.94;98890.53;5047789;28;20032;-62
2021/01/25 09:56:17;;;;;;;7.57;4.28;;;;;;;0.98;84.94;98903.34;5065435;28;20029;-62
2021/01/25 09:58:42;;;;;;;11.45;4.40;;;;;;;1.09;84.38;98899.97;5047539;28;20024;-63
2021/01/25 10:01:07;;;;;;;8.45;4.22;;;;;;;1.10;83.98;98907.66;5065305;28;20310;-64
2021/01/25 10:03:33;;;;;;;8.00;3.90;;;;;;;1.17;84.21;98903.44;5065216;28;20032;-62
2021/01/25 10:05:58;;;;;;;7.13;4.53;;;;;;;1.25;84.92;98905.19;5065324;28;20449;-63
2021/01/25 10:08:24;;;;;;;10.93;3.10;;;;;;;1.57;85.35;98913.00;5046493;28;20416;-63
2021/01/25 10:10:49;;;;;;;6.40;4.25;;;;;;;1.81;85.47;98910.53;5046134;28;20051;-62
2021/01/25 10:13:14;;;;;;;7.40;3.60;;;;;;;1.92;84.29;98908.00;5064235;28;20025;-62
2021/01/25 10:15:41;;;;;;;7.28;3.17;;;;;;;2.00;84.39;98915.72;5064966;28;20025;-62
2021/01/25 10:18:06;;;;;;;8.82;3.13;;;;;;;2.01;84.23;98917.41;5047208;28;20032;-64
2021/01/25 10:20:31;;;;;;;5.65;2.60;;;;;;;1.94;83.55;98922.53;5046577;28;20067;-60
2021/01/25 10:22:57;;;;;;;5.32;2.90;;;;;;;1.87;82.71;98930.19;5064103;28;20032;-62
2021/01/25 10:25:23;;;;;;;5.32;2.58;;;;;;;1.77;83.08;98922.47;5046785;28;20036;-66
2021/01/25 10:27:49;;;;;;;6.65;3.13;;;;;;;1.74;83.21;98930.16;5064754;28;20048;-63
2021/01/25 10:30:17;;;;;;;7.15;4.30;;;;;;;1.75;83.28;98936.09;5046520;28;20020;-62
2021/01/25 10:32:42;;;;;;;4.28;2.70;;;;;;;1.76;82.62;98937.81;5046721;28;20025;-62
2021/01/25 10:35:09;;;;;;;4.85;3.10;;;;;;;1.70;82.51;98934.38;5064420;28;20064;-63
2021/01/25 10:37:34;;;;;;;6.65;2.90;;;;;;;1.73;82.74;98936.97;5064388;28;20060;-61
2021/01/25 10:39:59;;;;;;;6.28;3.00;;;;;;;1.83;82.78;98937.84;5046500;28;20031;-63
2021/01/25 10:42:25;;;;;;;3.85;2.30;;;;;;;1.93;82.37;98932.75;5064709;28;20013;-63
2021/01/25 10:44:50;;;;;;;8.75;3.10;;;;;;;1.92;81.71;98938.72;5064364;28;20053;-63
2021/01/25 10:47:18;;;;;;;4.65;2.28;;;;;;;1.98;81.85;98936.19;5064515;28;20042;-64
2021/01/25 10:49:48;;;;;;;2.78;2.03;;;;;;;2.01;81.84;98945.56;5064015;28;20066;-64
2021/01/25 10:52:14;;;;;;;4.25;2.15;;;;;;;2.05;81.77;98942.16;5063716;28;20017;-65
2021/01/25 10:54:40;;;;;;;4.53;1.83;;;;;;;2.07;81.20;98950.72;5064365;28;20020;-65
2021/01/25 10:57:07;;;;;;;3.22;1.73;;;;;;;2.14;80.59;98954.97;5064004;28;20032;-65
2021/01/25 10:59:32;;;;;;;3.38;2.03;;;;;;;2.16;80.29;98945.59;5064104;28;20044;-67
2021/01/25 11:01:57;;;;;;;3.30;1.70;;;;;;;2.20;79.49;98949.91;5046243;28;20028;-64
2021/01/25 11:04:23;;;;;;;5.85;1.75;;;;;;;2.17;79.68;98954.16;5063961;28;20056;-66
2021/01/25 11:06:49;;;;;;;3.35;1.90;;;;;;;2.07;79.73;98938.78;5045871;28;20020;-65
2021/01/25 11:09:16;;;;;;;2.15;1.67;;;;;;;2.17;79.03;98952.44;5063848;28;20052;-65
2021/01/25 11:11:41;;;;;;;3.67;2.03;;;;;;;2.14;77.79;98952.44;5045999;28;20044;-65
2021/01/25 11:14:06;;;;;;;4.80;1.60;;;;;;;2.17;76.26;98960.13;5063768;28;20032;-65
2021/01/25 11:16:32;;;;;;;2.20;1.90;;;;;;;2.03;76.90;98957.53;5046141;28;20320;-63
2021/01/25 11:18:58;;;;;;;3.53;1.85;;;;;;;1.95;77.40;98967.75;5063530;28;20036;-66
2021/01/25 11:21:24;;;;;;;3.63;2.20;;;;;;;1.85;78.19;98960.88;5045631;28;20051;-65
2021/01/25 11:23:50;;;;;;;4.75;1.90;;;;;;;1.74;78.62;98965.97;5064041;28;20036;-65
2021/01/25 11:26:17;;;;;;;3.85;1.77;;;;;;;1.79;78.68;98971.09;5045568;28;20036;-65